createdAt,value
2018-02-13T00:01:33.998Z,-8.00
2018-02-13T00:04:00.589Z,-8.00
2018-02-13T00:06:28.261Z,-8.10
2018-02-13T00:08:54.796Z,-8.10
2018-02-13T00:11:21.368Z,-8.10
2018-02-13T00:13:47.910Z,-8.20
2018-02-13T00:16:14.474Z,-8.20
2018-02-13T00:18:41.058Z,-8.20
2018-02-13T00:21:08.349Z,-8.20
2018-02-13T00:23:35.682Z,-8.20
2018-02-13T00:26:02.397Z,-8.30
2018-02-13T00:28:29.087Z,-8.20
2018-02-13T00:30:55.623Z,-8.20
2018-02-13T00:33:22.279Z,-8.10
2018-02-13T00:35:48.832Z,-8.20
2018-02-13T00:38:15.402Z,-8.20
2018-02-13T00:40:42.003Z,-8.20
2018-02-13T00:43:08.715Z,-8.20
2018-02-13T00:45:35.254Z,-8.20
2018-02-13T00:48:05.929Z,-8.20
2018-02-13T00:50:33.234Z,-8.30
2018-02-13T00:52:59.773Z,-8.30
2018-02-13T00:55:27.437Z,-8.30
2018-02-13T00:57:53.984Z,-8.30
2018-02-13T01:00:20.496Z,-8.30
2018-02-13T01:02:47.086Z,-8.30
2018-02-13T01:05:13.628Z,-8.30
2018-02-13T01:07:40.228Z,-8.40
2018-02-13T01:10:06.852Z,-8.30
2018-02-13T01:12:33.389Z,-8.40
2018-02-13T01:14:59.942Z,-8.40
2018-02-13T01:17:26.510Z,-8.40
2018-02-13T01:19:53.082Z,-8.50
2018-02-13T01:22:19.791Z,-8.50
2018-02-13T01:24:47.102Z,-8.50
2018-02-13T01:27:13.739Z,-8.50
2018-02-13T01:29:40.489Z,-8.50
2018-02-13T01:32:07.059Z,-8.40
2018-02-13T01:34:37.078Z,-8.30
2018-02-13T01:37:03.661Z,-8.30
2018-02-13T01:39:30.215Z,-8.30
2018-02-13T01:41:56.766Z,-8.30
2018-02-13T01:44:23.282Z,-8.20
2018-02-13T01:46:49.924Z,-8.20
2018-02-13T01:49:16.499Z,-8.30
2018-02-13T01:51:43.064Z,-8.30
2018-02-13T01:54:10.350Z,-8.30
2018-02-13T01:56:37.036Z,-8.30
2018-02-13T01:59:04.323Z,-8.20
2018-02-13T02:01:35.420Z,-8.30
2018-02-13T02:04:03.478Z,-8.20
2018-02-13T02:06:34.548Z,-8.20
2018-02-13T02:09:01.886Z,-8.00
2018-02-13T02:11:28.453Z,-8.10
2018-02-13T02:13:55.726Z,-8.20
2018-02-13T02:16:22.275Z,-8.20
2018-02-13T02:18:48.859Z,-8.20
2018-02-13T02:21:16.146Z,-8.30
2018-02-13T02:23:46.531Z,-8.30
2018-02-13T02:26:13.117Z,-8.30
2018-02-13T02:28:39.592Z,-8.30
2018-02-13T02:31:06.042Z,-8.40
2018-02-13T02:33:32.592Z,-8.40
2018-02-13T02:35:59.117Z,-8.30
2018-02-13T02:38:25.548Z,-8.20
2018-02-13T02:40:52.015Z,-8.20
2018-02-13T02:43:18.432Z,-8.10
2018-02-13T02:45:48.960Z,-8.00
2018-02-13T02:48:15.394Z,-7.80
2018-02-13T02:50:41.848Z,-7.70
2018-02-13T02:53:08.265Z,-7.70
2018-02-13T02:55:34.684Z,-7.70
2018-02-13T02:58:01.291Z,-7.70
2018-02-13T03:00:27.809Z,-7.70
2018-02-13T03:02:54.281Z,-7.70
2018-02-13T03:05:20.690Z,-7.70
2018-02-13T03:07:47.148Z,-7.60
2018-02-13T03:10:13.597Z,-7.50
2018-02-13T03:12:40.066Z,-7.50
2018-02-13T03:15:08.005Z,-7.50
2018-02-13T03:17:34.856Z,-7.50
2018-02-13T03:20:01.304Z,-7.40
2018-02-13T03:22:27.765Z,-7.40
2018-02-13T03:24:54.936Z,-7.40
2018-02-13T03:27:21.369Z,-7.40
2018-02-13T03:29:47.788Z,-7.50
2018-02-13T03:32:18.670Z,-7.80
2018-02-13T03:34:49.037Z,-7.80
2018-02-13T03:37:16.240Z,-7.90
2018-02-13T03:39:42.696Z,-8.00
2018-02-13T03:42:09.168Z,-8.00
2018-02-13T03:44:36.580Z,-8.30
2018-02-13T03:47:03.038Z,-8.30
2018-02-13T03:49:29.463Z,-8.40
2018-02-13T03:51:56.684Z,-8.50
2018-02-13T03:54:23.089Z,-8.60
2018-02-13T03:56:49.536Z,-8.60
2018-02-13T03:59:15.965Z,-8.70
2018-02-13T04:01:42.518Z,-8.80
2018-02-13T04:04:08.953Z,-8.80
2018-02-13T04:06:35.384Z,-8.80
2018-02-13T04:09:01.824Z,-8.80
2018-02-13T04:11:28.268Z,-8.80
2018-02-13T04:13:54.706Z,-8.90
2018-02-13T04:16:25.035Z,-8.90
2018-02-13T04:18:51.484Z,-9.00
2018-02-13T04:21:17.936Z,-9.00
2018-02-13T04:23:44.438Z,-9.10
2018-02-13T04:26:10.837Z,-9.10
2018-02-13T04:28:37.292Z,-9.20
2018-02-13T04:31:03.694Z,-9.20
2018-02-13T04:33:30.353Z,-9.20
2018-02-13T04:35:56.781Z,-9.30
2018-02-13T04:38:23.239Z,-9.20
2018-02-13T04:40:49.668Z,-9.20
2018-02-13T04:43:16.097Z,-9.20
2018-02-13T04:45:42.535Z,-9.20
2018-02-13T04:48:08.952Z,-9.30
2018-02-13T04:50:35.517Z,-9.30
2018-02-13T04:53:01.989Z,-9.30
2018-02-13T04:55:29.148Z,-9.30
2018-02-13T04:57:56.330Z,-9.40
2018-02-13T05:00:22.772Z,-9.40
2018-02-13T05:02:49.212Z,-9.40
2018-02-13T05:05:15.664Z,-9.40
2018-02-13T05:07:46.490Z,-9.50
2018-02-13T05:10:12.932Z,-9.50
2018-02-13T05:12:39.376Z,-9.50
2018-02-13T05:15:05.990Z,-9.60
2018-02-13T05:17:33.241Z,-9.60
2018-02-13T05:19:59.683Z,-9.60
2018-02-13T05:22:26.170Z,-9.60
2018-02-13T05:24:53.340Z,-9.70
2018-02-13T05:27:19.806Z,-9.70
2018-02-13T05:29:46.247Z,-9.60
2018-02-13T05:32:14.691Z,-9.60
2018-02-13T05:34:41.346Z,-9.60
2018-02-13T05:37:07.808Z,-9.50
2018-02-13T05:39:34.220Z,-9.50
2018-02-13T05:42:03.732Z,-9.50
2018-02-13T05:44:30.164Z,-9.50
2018-02-13T05:46:56.610Z,-9.40
2018-02-13T05:49:23.038Z,-9.40
2018-02-13T05:51:49.476Z,-9.40
2018-02-13T05:54:15.908Z,-9.30
2018-02-13T05:56:42.385Z,-9.20
2018-02-13T05:59:08.829Z,-9.20
2018-02-13T06:01:35.257Z,-9.10
2018-02-13T06:04:01.739Z,-9.10
2018-02-13T06:06:28.279Z,-9.00
2018-02-13T06:08:54.729Z,-9.00
2018-02-13T06:11:21.169Z,-8.90
2018-02-13T06:13:47.612Z,-8.90
2018-02-13T06:16:14.784Z,-8.90
2018-02-13T06:18:41.259Z,-8.90
2018-02-13T06:21:07.695Z,-8.80
2018-02-13T06:23:34.169Z,-8.80
2018-02-13T06:26:00.822Z,-8.80
2018-02-13T06:28:28.009Z,-8.90
2018-02-13T06:30:54.451Z,-8.80
2018-02-13T06:33:20.918Z,-8.80
2018-02-13T06:35:48.155Z,-8.90
2018-02-13T06:38:16.081Z,-8.90
2018-02-13T06:40:42.531Z,-8.90
2018-02-13T06:43:09.001Z,-8.80
2018-02-13T06:45:35.528Z,-8.80
2018-02-13T06:48:01.966Z,-8.80
2018-02-13T06:50:28.676Z,-8.70
2018-02-13T06:52:55.116Z,-8.70
2018-02-13T06:55:22.296Z,-8.70
2018-02-13T06:57:49.025Z,-8.70
2018-02-13T07:00:15.629Z,-8.60
2018-02-13T07:02:42.107Z,-8.60
2018-02-13T07:05:08.628Z,-8.60
2018-02-13T07:07:35.373Z,-8.50
2018-02-13T07:10:02.676Z,-8.40
2018-02-13T07:12:29.816Z,-8.40
2018-02-13T07:14:58.201Z,-8.30
2018-02-13T07:17:24.782Z,-8.30
2018-02-13T07:19:51.273Z,-8.20
2018-02-13T07:22:18.448Z,-8.00
2018-02-13T07:24:48.882Z,-8.00
2018-02-13T07:27:15.331Z,-7.90
2018-02-13T07:29:41.807Z,-7.90
2018-02-13T07:32:12.132Z,-7.80
2018-02-13T07:34:38.626Z,-7.80
2018-02-13T07:37:10.342Z,-7.70
2018-02-13T07:39:36.809Z,-7.70
2018-02-13T07:42:03.297Z,-7.60
2018-02-13T07:44:30.505Z,-7.50
2018-02-13T07:46:56.947Z,-7.50
2018-02-13T07:49:23.413Z,-7.40
2018-02-13T07:51:50.605Z,-7.30
2018-02-13T07:54:17.085Z,-7.30
2018-02-13T07:56:43.536Z,-7.20
2018-02-13T07:59:10.051Z,-7.10
2018-02-13T08:01:36.463Z,-7.00
2018-02-13T08:04:02.932Z,-6.90
2018-02-13T08:06:29.408Z,-6.90
2018-02-13T08:08:55.860Z,-6.80
2018-02-13T08:11:22.352Z,-6.60
2018-02-13T08:13:49.572Z,-5.60
2018-02-13T08:16:16.007Z,-5.60
2018-02-13T08:18:43.354Z,-3.80
2018-02-13T08:21:09.791Z,-3.90
2018-02-13T08:23:36.236Z,-3.00
2018-02-13T08:26:03.529Z,-1.50
2018-02-13T08:28:30.755Z,-0.80
2018-02-13T08:30:58.059Z,-0.20
2018-02-13T08:33:24.539Z,-0.20
2018-02-13T08:35:51.102Z,0.50
2018-02-13T08:38:18.414Z,1.60
2018-02-13T08:40:44.945Z,1.60
2018-02-13T08:43:11.404Z,2.20
2018-02-13T08:45:37.933Z,2.80
2018-02-13T08:48:04.450Z,3.20
2018-02-13T08:50:30.993Z,3.50
2018-02-13T08:52:57.828Z,3.80
2018-02-13T08:55:28.322Z,4.20
2018-02-13T08:57:54.809Z,4.60
2018-02-13T09:00:21.293Z,5.10
2018-02-13T09:02:47.761Z,5.60
2018-02-13T09:05:14.202Z,6.00
2018-02-13T09:07:40.623Z,6.50
2018-02-13T09:10:11.683Z,6.80
2018-02-13T09:12:38.148Z,7.10
2018-02-13T09:15:05.340Z,7.40
2018-02-13T09:17:31.795Z,7.40
2018-02-13T09:19:58.236Z,7.50
2018-02-13T09:22:24.703Z,7.70
2018-02-13T09:24:51.158Z,8.00
2018-02-13T09:27:17.640Z,8.20
2018-02-13T09:29:44.104Z,8.20
2018-02-13T09:32:11.280Z,8.50
2018-02-13T09:34:38.581Z,8.90
2018-02-13T09:37:05.014Z,8.90
2018-02-13T09:39:31.452Z,9.20
2018-02-13T09:41:57.883Z,9.30
2018-02-13T09:44:24.328Z,9.20
2018-02-13T09:46:50.768Z,9.20
2018-02-13T09:49:17.219Z,9.40
2018-02-13T09:51:44.391Z,10.00
2018-02-13T09:54:11.692Z,10.40
2018-02-13T09:56:38.165Z,10.40
2018-02-13T09:59:04.654Z,10.70
2018-02-13T10:01:31.069Z,10.90
2018-02-13T10:03:57.566Z,11.20
2018-02-13T10:06:25.062Z,11.60
2018-02-13T10:08:51.598Z,11.60
2018-02-13T10:11:18.083Z,12.00
2018-02-13T10:13:45.537Z,12.40
2018-02-13T10:16:12.129Z,12.40
2018-02-13T10:18:38.802Z,12.40
2018-02-13T10:21:09.910Z,12.90
2018-02-13T10:23:36.421Z,13.40
2018-02-13T10:26:02.927Z,13.70
2018-02-13T10:28:29.368Z,14.00
2018-02-13T10:30:56.580Z,14.10
2018-02-13T10:33:23.048Z,14.00
2018-02-13T10:35:49.594Z,14.20
2018-02-13T10:38:16.867Z,15.00
2018-02-13T10:40:43.391Z,15.00
2018-02-13T10:43:10.011Z,14.80
2018-02-13T10:45:36.545Z,14.60
2018-02-13T10:48:03.188Z,14.30
2018-02-13T10:50:29.766Z,14.00
2018-02-13T10:52:56.242Z,13.40
2018-02-13T10:55:22.697Z,12.90
2018-02-13T10:57:49.132Z,13.40
2018-02-13T11:00:15.649Z,13.70
2018-02-13T11:02:42.168Z,13.40
2018-02-13T11:05:08.749Z,13.30
2018-02-13T11:07:35.274Z,12.90
2018-02-13T11:10:01.744Z,12.20
2018-02-13T11:12:28.205Z,11.30
2018-02-13T11:14:54.705Z,11.10
2018-02-13T11:17:22.349Z,11.10
2018-02-13T11:19:48.905Z,11.10
2018-02-13T11:22:15.711Z,10.50
2018-02-13T11:24:43.011Z,9.70
2018-02-13T11:27:10.432Z,10.60
2018-02-13T11:29:36.937Z,10.60
2018-02-13T11:32:03.390Z,10.60
2018-02-13T11:34:30.728Z,9.40
2018-02-13T11:36:57.162Z,9.40
2018-02-13T11:39:24.650Z,8.90
2018-02-13T11:41:51.066Z,8.10
2018-02-13T11:44:17.534Z,8.30
2018-02-13T11:46:44.740Z,7.80
2018-02-13T11:49:11.195Z,7.80
2018-02-13T11:51:37.657Z,7.60
2018-02-13T11:54:04.162Z,7.20
2018-02-13T11:56:30.756Z,6.90
2018-02-13T11:58:57.946Z,7.60
2018-02-13T12:01:24.380Z,7.60
2018-02-13T12:03:50.815Z,7.40
2018-02-13T12:06:17.269Z,7.20
2018-02-13T12:08:43.787Z,6.60
2018-02-13T12:11:10.357Z,6.50
2018-02-13T12:13:36.910Z,6.80
2018-02-13T12:16:04.091Z,8.40
2018-02-13T12:18:30.594Z,8.40
2018-02-13T12:20:57.804Z,9.90
2018-02-13T12:23:24.388Z,9.80
2018-02-13T12:25:51.567Z,9.10
2018-02-13T12:28:18.462Z,9.10
2018-02-13T12:30:45.146Z,9.30
2018-02-13T12:33:11.601Z,9.90
2018-02-13T12:35:38.093Z,10.30
2018-02-13T12:38:04.521Z,10.90
2018-02-13T12:40:31.009Z,11.40
2018-02-13T12:42:57.450Z,11.40
2018-02-13T12:45:23.966Z,11.20
2018-02-13T12:47:51.488Z,11.60
2018-02-13T12:50:18.712Z,11.40
2018-02-13T12:52:45.207Z,11.40
2018-02-13T12:55:11.708Z,11.40
2018-02-13T12:57:38.171Z,11.20
2018-02-13T13:00:04.675Z,11.60
2018-02-13T13:02:31.890Z,11.50
2018-02-13T13:04:58.414Z,11.50
2018-02-13T13:07:24.875Z,11.70
2018-02-13T13:09:51.427Z,11.50
2018-02-13T13:12:17.853Z,11.00
2018-02-13T13:14:48.565Z,10.90
2018-02-13T13:17:15.061Z,10.90
2018-02-13T13:19:41.523Z,10.40
2018-02-13T13:22:08.056Z,9.70
2018-02-13T13:24:34.563Z,9.00
2018-02-13T13:27:01.725Z,8.60
2018-02-13T13:29:28.223Z,8.50
2018-02-13T13:31:54.657Z,8.20
2018-02-13T13:34:21.168Z,7.80
2018-02-13T13:36:47.594Z,7.80
2018-02-13T13:39:14.085Z,8.10
2018-02-13T13:41:41.301Z,8.60
2018-02-13T13:44:07.783Z,8.60
2018-02-13T13:46:34.980Z,8.00
2018-02-13T13:49:01.461Z,7.90
2018-02-13T13:51:28.651Z,8.10
2018-02-13T13:53:55.659Z,8.10
2018-02-13T13:56:23.212Z,8.20
2018-02-13T13:58:49.671Z,8.20
2018-02-13T14:01:16.159Z,8.40
2018-02-13T14:03:42.688Z,8.00
2018-02-13T14:06:09.140Z,7.80
2018-02-13T14:08:37.163Z,7.60
2018-02-13T14:11:03.633Z,7.60
2018-02-13T14:13:30.076Z,7.50
2018-02-13T14:15:56.647Z,7.30
2018-02-13T14:18:23.849Z,7.00
2018-02-13T14:20:50.301Z,7.00
2018-02-13T14:23:16.748Z,6.90
2018-02-13T14:25:44.709Z,6.40
2018-02-13T14:28:11.201Z,6.40
2018-02-13T14:30:37.670Z,6.30
2018-02-13T14:33:04.199Z,6.10
2018-02-13T14:35:34.092Z,6.20
2018-02-13T14:38:00.529Z,6.40
2018-02-13T14:40:26.984Z,6.40
2018-02-13T14:42:53.441Z,6.40
2018-02-13T14:45:19.950Z,6.40
2018-02-13T14:47:46.405Z,6.40
2018-02-13T14:50:12.895Z,6.10
2018-02-13T14:52:39.337Z,6.00
2018-02-13T14:55:05.846Z,6.00
2018-02-13T14:57:32.309Z,5.90
2018-02-13T14:59:58.801Z,5.70
2018-02-13T15:02:26.120Z,5.10
2018-02-13T15:04:52.589Z,5.00
2018-02-13T15:07:19.020Z,4.70
2018-02-13T15:09:46.253Z,4.10
2018-02-13T15:12:12.777Z,4.00
2018-02-13T15:14:40.347Z,4.00
2018-02-13T15:17:11.741Z,3.80
2018-02-13T15:19:48.202Z,3.70
2018-02-13T15:22:14.656Z,3.60
2018-02-13T15:24:41.277Z,3.50
2018-02-13T15:27:08.473Z,3.30
2018-02-13T15:29:34.883Z,3.30
2018-02-13T15:32:01.348Z,3.20
2018-02-13T15:34:27.816Z,3.10
2018-02-13T15:36:54.272Z,3.00
2018-02-13T15:39:21.448Z,2.60
2018-02-13T15:41:47.907Z,2.60
2018-02-13T15:44:14.331Z,2.40
2018-02-13T15:46:45.390Z,2.10
2018-02-13T15:49:12.148Z,2.00
2018-02-13T15:51:38.620Z,1.70
2018-02-13T15:54:05.056Z,1.40
2018-02-13T15:56:31.504Z,1.30
2018-02-13T15:58:58.046Z,1.10
2018-02-13T16:01:24.467Z,0.90
2018-02-13T16:03:50.910Z,0.80
2018-02-13T16:06:17.376Z,0.70
2018-02-13T16:08:43.877Z,0.60
2018-02-13T16:11:10.352Z,0.50
2018-02-13T16:13:36.924Z,0.40
2018-02-13T16:16:03.516Z,0.30
2018-02-13T16:18:29.927Z,0.30
2018-02-13T16:21:00.316Z,0.20
2018-02-13T16:23:27.522Z,0.10
2018-02-13T16:25:53.943Z,0.10
2018-02-13T16:28:20.412Z,-0.10
2018-02-13T16:30:46.865Z,-0.10
2018-02-13T16:33:13.292Z,-0.30
2018-02-13T16:35:40.504Z,-0.40
2018-02-13T16:38:06.945Z,-0.40
2018-02-13T16:40:33.399Z,-0.40
2018-02-13T16:42:59.841Z,-0.60
2018-02-13T16:45:26.273Z,-0.60
2018-02-13T16:47:52.846Z,-0.70
2018-02-13T16:50:20.021Z,-0.90
2018-02-13T16:52:47.690Z,-0.90
2018-02-13T16:55:14.146Z,-0.90
2018-02-13T16:57:40.619Z,-1.00
2018-02-13T17:00:07.802Z,-1.10
2018-02-13T17:02:34.216Z,-1.20
2018-02-13T17:05:01.416Z,-1.20
2018-02-13T17:07:27.848Z,-1.30
2018-02-13T17:09:54.384Z,-1.30
2018-02-13T17:12:20.814Z,-1.30
2018-02-13T17:14:47.277Z,-1.40
2018-02-13T17:17:14.467Z,-1.50
2018-02-13T17:19:41.777Z,-1.50
2018-02-13T17:22:08.963Z,-1.60
2018-02-13T17:27:32.528Z,-1.60
2018-02-13T17:29:59.240Z,-1.60
2018-02-13T17:32:26.901Z,-1.70
2018-02-13T17:34:53.643Z,-1.70
2018-02-13T17:37:20.389Z,-1.80
2018-02-13T17:39:47.313Z,-1.80
2018-02-13T17:42:13.823Z,-1.80
2018-02-13T17:44:40.389Z,-1.80
2018-02-13T17:47:07.247Z,-1.90
2018-02-13T17:49:33.885Z,-1.90
2018-02-13T17:52:00.629Z,-2.00
2018-02-13T17:54:27.418Z,-2.00
2018-02-13T17:56:54.528Z,-2.00
2018-02-13T17:59:21.369Z,-2.00
2018-02-13T18:01:47.984Z,-2.10
2018-02-13T18:04:14.743Z,-2.10
2018-02-13T18:06:44.664Z,-2.20
2018-02-13T18:09:11.304Z,-2.20
2018-02-13T18:11:42.238Z,-2.30
2018-02-13T18:14:09.695Z,-2.40
2018-02-13T18:16:36.232Z,-2.40
2018-02-13T18:19:02.973Z,-2.40
2018-02-13T18:21:30.281Z,-2.50
2018-02-13T18:23:56.967Z,-2.60
2018-02-13T18:26:24.410Z,-2.70
2018-02-13T18:28:55.367Z,-2.70
2018-02-13T18:31:22.826Z,-2.80
2018-02-13T18:33:49.667Z,-2.80
2018-02-13T18:36:16.425Z,-2.80
2018-02-13T18:38:43.868Z,-2.90
2018-02-13T18:41:11.323Z,-2.90
2018-02-13T18:43:41.559Z,-2.90
2018-02-13T18:46:08.288Z,-2.90
2018-02-13T18:48:35.031Z,-3.00
2018-02-13T18:51:02.600Z,-3.10
2018-02-13T18:53:30.870Z,-3.10
2018-02-13T18:55:57.627Z,-3.10
2018-02-13T18:58:25.177Z,-3.20
2018-02-13T19:00:51.812Z,-3.20
2018-02-13T19:03:18.577Z,-3.30
2018-02-13T19:05:50.411Z,-3.30
2018-02-13T19:08:18.623Z,-3.40
2018-02-13T19:10:45.327Z,-3.40
2018-02-13T19:13:12.073Z,-3.40
2018-02-13T19:15:38.912Z,-3.40
2018-02-13T19:18:05.653Z,-3.40
2018-02-13T19:20:32.296Z,-3.40
2018-02-13T19:22:58.932Z,-3.40
2018-02-13T19:25:25.674Z,-3.50
2018-02-13T19:27:53.751Z,-3.60
2018-02-13T19:30:20.385Z,-3.60
2018-02-13T19:32:47.035Z,-3.60
2018-02-13T19:35:14.792Z,-3.60
2018-02-13T19:37:46.038Z,-3.60
2018-02-13T19:40:13.393Z,-3.60
2018-02-13T19:42:40.019Z,-3.60
2018-02-13T19:45:06.772Z,-3.70
2018-02-13T19:47:33.511Z,-3.70
2018-02-13T19:50:00.271Z,-3.70
2018-02-13T19:52:27.538Z,-3.70
2018-02-13T19:54:54.356Z,-3.80
2018-02-13T19:57:22.530Z,-3.80
2018-02-13T19:59:49.987Z,-3.90
2018-02-13T20:02:16.929Z,-3.90
2018-02-13T20:04:43.669Z,-3.90
2018-02-13T20:07:11.033Z,-4.00
2018-02-13T20:09:37.771Z,-4.00
2018-02-13T20:12:05.225Z,-4.00
2018-02-13T20:14:32.686Z,-4.10
2018-02-13T20:17:00.052Z,-4.10
2018-02-13T20:19:27.498Z,-4.20
2018-02-13T20:21:54.853Z,-4.20
2018-02-13T20:24:21.596Z,-4.20
2018-02-13T20:26:48.248Z,-4.20
2018-02-13T20:29:16.538Z,-4.20
2018-02-13T20:31:43.529Z,-4.20
2018-02-13T20:34:10.311Z,-4.20
2018-02-13T20:36:37.658Z,-4.30
2018-02-13T20:39:09.720Z,-4.30
2018-02-13T20:41:36.359Z,-4.30
2018-02-13T20:44:03.241Z,-4.30
2018-02-13T20:46:30.055Z,-4.30
2018-02-13T20:48:58.128Z,-4.30
2018-02-13T20:51:25.580Z,-4.30
2018-02-13T20:53:53.042Z,-4.30
2018-02-13T20:56:20.915Z,-4.40
2018-02-13T20:58:48.362Z,-4.40
2018-02-13T21:01:15.105Z,-4.40
2018-02-13T21:03:41.727Z,-4.40
2018-02-13T21:06:12.372Z,-4.40
2018-02-13T21:08:38.991Z,-4.50
2018-02-13T21:11:05.753Z,-4.50
2018-02-13T21:13:32.397Z,-4.50
2018-02-13T21:15:59.243Z,-4.40
2018-02-13T21:18:25.877Z,-4.40
2018-02-13T21:20:52.717Z,-4.50
2018-02-13T21:23:19.360Z,-4.50
2018-02-13T21:25:46.216Z,-4.50
2018-02-13T21:28:13.761Z,-4.50
2018-02-13T21:30:40.604Z,-4.60
2018-02-13T21:33:07.448Z,-4.50
2018-02-13T21:35:34.087Z,-4.60
2018-02-13T21:38:00.829Z,-4.60
2018-02-13T21:40:28.288Z,-4.60
2018-02-13T21:42:54.924Z,-4.70
2018-02-13T21:45:21.573Z,-4.70
2018-02-13T21:47:48.898Z,-4.70
2018-02-13T21:50:15.553Z,-4.70
2018-02-13T21:52:42.197Z,-4.60
2018-02-13T21:55:10.572Z,-4.70
2018-02-13T21:57:39.885Z,-4.70
2018-02-13T22:00:07.338Z,-4.70
2018-02-13T22:02:34.078Z,-4.70
2018-02-13T22:05:00.818Z,-4.80
2018-02-13T22:07:27.560Z,-4.80
2018-02-13T22:09:54.873Z,-4.80
2018-02-13T22:12:21.450Z,-4.80
2018-02-13T22:14:48.089Z,-4.80
2018-02-13T22:17:14.918Z,-4.90
2018-02-13T22:19:41.572Z,-4.90
2018-02-13T22:22:09.930Z,-4.90
2018-02-13T22:24:37.381Z,-4.90
2018-02-13T22:27:04.866Z,-4.90
2018-02-13T22:29:31.504Z,-4.90
2018-02-13T22:31:58.247Z,-4.90
2018-02-13T22:34:24.886Z,-5.00
2018-02-13T22:36:51.615Z,-5.00
2018-02-13T22:39:18.277Z,-5.00
2018-02-13T22:41:44.849Z,-5.00
2018-02-13T22:44:11.546Z,-5.00
2018-02-13T22:46:38.998Z,-5.10
2018-02-13T22:49:05.954Z,-5.10
2018-02-13T22:51:32.686Z,-5.10
2018-02-13T22:53:59.439Z,-5.10
2018-02-13T22:56:26.776Z,-5.10
2018-02-13T22:58:53.527Z,-5.10
2018-02-13T23:01:20.291Z,-5.20
2018-02-13T23:03:47.623Z,-5.20
2018-02-13T23:06:14.378Z,-5.20
2018-02-13T23:08:45.625Z,-5.30
2018-02-13T23:11:12.192Z,-5.30
2018-02-13T23:13:39.196Z,-5.40
2018-02-13T23:16:05.937Z,-5.40
2018-02-13T23:18:32.575Z,-5.40
2018-02-13T23:20:59.233Z,-5.40
2018-02-13T23:23:30.052Z,-5.40
2018-02-13T23:25:56.637Z,-5.50
2018-02-13T23:28:23.433Z,-5.50
2018-02-13T23:30:50.175Z,-5.50
2018-02-13T23:33:20.806Z,-5.50
2018-02-13T23:35:48.365Z,-5.60
2018-02-13T23:38:18.757Z,-5.60
2018-02-13T23:40:45.308Z,-5.50
2018-02-13T23:43:12.071Z,-5.50
2018-02-13T23:45:38.691Z,-5.60
2018-02-13T23:48:05.457Z,-5.60
2018-02-13T23:50:32.089Z,-5.70
2018-02-13T23:52:58.735Z,-5.70
2018-02-13T23:55:25.469Z,-5.80
2018-02-13T23:57:55.897Z,-5.80
